sensor_id;sensor_type;location;lat;lon;timestamp;P1;durP1;ratioP1;P2;durP2;ratioP2
19404;SDS011;9838;49.384;8.292;2022-10-31T00:04:01;2.10;;;1.40;;
19404;SDS011;9838;49.384;8.292;2022-10-31T00:14:04;3.43;;;1.77;;
19404;SDS011;9838;49.384;8.292;2022-10-31T00:24:06;2.40;;;1.40;;
19404;SDS011;9838;49.384;8.292;2022-10-31T00:34:07;5.43;;;1.63;;
19404;SDS011;9838;49.384;8.292;2022-10-31T00:44:10;2.57;;;1.83;;
19404;SDS011;9838;49.384;8.292;2022-10-31T00:54:11;3.70;;;1.57;;
19404;SDS011;9838;49.384;8.292;2022-10-31T01:04:13;2.17;;;1.50;;
19404;SDS011;9838;49.384;8.292;2022-10-31T01:14:15;2.07;;;1.10;;
19404;SDS011;9838;49.384;8.292;2022-10-31T01:24:17;2.83;;;1.50;;
19404;SDS011;9838;49.384;8.292;2022-10-31T01:34:18;1.50;;;0.97;;
19404;SDS011;9838;49.384;8.292;2022-10-31T01:54:23;1.87;;;1.30;;
19404;SDS011;9838;49.384;8.292;2022-10-31T02:04:25;2.93;;;1.50;;
19404;SDS011;9838;49.384;8.292;2022-10-31T02:14:27;4.83;;;2.20;;
19404;SDS011;9838;49.384;8.292;2022-10-31T02:54:51;3.23;;;1.80;;
19404;SDS011;9838;49.384;8.292;2022-10-31T03:05:00;5.30;;;2.00;;
19404;SDS011;9838;49.384;8.292;2022-10-31T03:25:12;3.00;;;1.70;;
19404;SDS011;9838;49.384;8.292;2022-10-31T03:35:15;2.33;;;1.30;;
19404;SDS011;9838;49.384;8.292;2022-10-31T03:45:21;7.53;;;2.07;;
19404;SDS011;9838;49.384;8.292;2022-10-31T04:05:38;5.43;;;2.87;;
19404;SDS011;9838;49.384;8.292;2022-10-31T04:15:42;6.27;;;2.13;;
19404;SDS011;9838;49.384;8.292;2022-10-31T04:25:45;5.00;;;2.20;;
19404;SDS011;9838;49.384;8.292;2022-10-31T04:35:47;5.20;;;2.30;;
19404;SDS011;9838;49.384;8.292;2022-10-31T04:45:49;7.70;;;2.07;;
19404;SDS011;9838;49.384;8.292;2022-10-31T04:55:51;4.53;;;1.93;;
19404;SDS011;9838;49.384;8.292;2022-10-31T05:05:57;4.07;;;1.87;;
19404;SDS011;9838;49.384;8.292;2022-10-31T05:15:58;3.83;;;2.30;;
19404;SDS011;9838;49.384;8.292;2022-10-31T05:26:29;2.80;;;1.97;;
19404;SDS011;9838;49.384;8.292;2022-10-31T05:36:31;2.67;;;1.67;;
19404;SDS011;9838;49.384;8.292;2022-10-31T05:46:43;2.97;;;1.97;;
19404;SDS011;9838;49.384;8.292;2022-10-31T05:56:52;2.87;;;1.83;;
19404;SDS011;9838;49.384;8.292;2022-10-31T06:06:55;3.40;;;1.63;;
19404;SDS011;9838;49.384;8.292;2022-10-31T06:16:57;2.70;;;1.50;;
19404;SDS011;9838;49.384;8.292;2022-10-31T06:27:17;3.00;;;1.37;;
19404;SDS011;9838;49.384;8.292;2022-10-31T06:37:20;2.40;;;1.70;;
19404;SDS011;9838;49.384;8.292;2022-10-31T06:47:24;2.03;;;1.40;;
19404;SDS011;9838;49.384;8.292;2022-10-31T06:57:49;4.50;;;1.80;;
19404;SDS011;9838;49.384;8.292;2022-10-31T07:08:01;3.73;;;1.93;;
19404;SDS011;9838;49.384;8.292;2022-10-31T07:18:06;3.10;;;1.60;;
19404;SDS011;9838;49.384;8.292;2022-10-31T07:28:08;4.07;;;1.70;;
19404;SDS011;9838;49.384;8.292;2022-10-31T07:38:12;2.80;;;1.80;;
19404;SDS011;9838;49.384;8.292;2022-10-31T07:48:14;4.23;;;2.10;;
19404;SDS011;9838;49.384;8.292;2022-10-31T07:58:34;2.33;;;1.50;;
19404;SDS011;9838;49.384;8.292;2022-10-31T08:08:36;2.30;;;1.83;;
19404;SDS011;9838;49.384;8.292;2022-10-31T08:18:38;4.13;;;2.20;;
19404;SDS011;9838;49.384;8.292;2022-10-31T08:28:45;6.90;;;2.37;;
19404;SDS011;9838;49.384;8.292;2022-10-31T08:38:48;2.77;;;1.77;;
19404;SDS011;9838;49.384;8.292;2022-10-31T08:48:51;4.77;;;2.77;;
19404;SDS011;9838;49.384;8.292;2022-10-31T08:58:54;5.03;;;3.07;;
19404;SDS011;9838;49.384;8.292;2022-10-31T09:09:05;4.70;;;3.03;;
19404;SDS011;9838;49.384;8.292;2022-10-31T09:19:07;4.03;;;2.67;;
19404;SDS011;9838;49.384;8.292;2022-10-31T09:29:10;15.40;;;3.80;;
19404;SDS011;9838;49.384;8.292;2022-10-31T09:39:13;5.43;;;2.77;;
19404;SDS011;9838;49.384;8.292;2022-10-31T09:49:40;5.00;;;2.50;;
19404;SDS011;9838;49.384;8.292;2022-10-31T09:59:47;5.13;;;2.87;;
19404;SDS011;9838;49.384;8.292;2022-10-31T10:09:52;6.83;;;3.13;;
19404;SDS011;9838;49.384;8.292;2022-10-31T10:40:17;5.57;;;3.23;;
19404;SDS011;9838;49.384;8.292;2022-10-31T10:50:23;4.33;;;2.80;;
19404;SDS011;9838;49.384;8.292;2022-10-31T11:00:30;6.47;;;3.00;;
19404;SDS011;9838;49.384;8.292;2022-10-31T11:10:32;4.67;;;3.03;;
19404;SDS011;9838;49.384;8.292;2022-10-31T11:20:35;6.17;;;3.13;;
19404;SDS011;9838;49.384;8.292;2022-10-31T11:30:45;6.67;;;2.97;;
19404;SDS011;9838;49.384;8.292;2022-10-31T11:40:54;5.70;;;3.10;;
19404;SDS011;9838;49.384;8.292;2022-10-31T11:51:01;4.43;;;2.97;;
19404;SDS011;9838;49.384;8.292;2022-10-31T12:01:03;5.17;;;2.97;;
19404;SDS011;9838;49.384;8.292;2022-10-31T12:21:34;5.27;;;3.77;;
19404;SDS011;9838;49.384;8.292;2022-10-31T12:41:52;4.03;;;2.80;;
19404;SDS011;9838;49.384;8.292;2022-10-31T13:02:02;3.93;;;2.87;;
19404;SDS011;9838;49.384;8.292;2022-10-31T13:12:07;6.00;;;3.07;;
19404;SDS011;9838;49.384;8.292;2022-10-31T13:22:13;4.60;;;3.30;;
19404;SDS011;9838;49.384;8.292;2022-10-31T13:32:18;5.20;;;2.93;;
19404;SDS011;9838;49.384;8.292;2022-10-31T13:53:03;4.13;;;2.53;;
19404;SDS011;9838;49.384;8.292;2022-10-31T14:03:18;3.57;;;2.33;;
19404;SDS011;9838;49.384;8.292;2022-10-31T14:13:21;4.30;;;2.30;;
19404;SDS011;9838;49.384;8.292;2022-10-31T14:33:33;4.53;;;2.60;;
19404;SDS011;9838;49.384;8.292;2022-10-31T14:54:10;4.53;;;2.63;;
19404;SDS011;9838;49.384;8.292;2022-10-31T15:04:17;4.17;;;2.50;;
19404;SDS011;9838;49.384;8.292;2022-10-31T15:14:28;5.07;;;2.80;;
19404;SDS011;9838;49.384;8.292;2022-10-31T15:24:33;4.37;;;2.57;;
19404;SDS011;9838;49.384;8.292;2022-10-31T15:34:41;6.13;;;2.67;;
19404;SDS011;9838;49.384;8.292;2022-10-31T15:44:43;5.83;;;3.13;;
19404;SDS011;9838;49.384;8.292;2022-10-31T15:54:50;6.63;;;2.80;;
19404;SDS011;9838;49.384;8.292;2022-10-31T16:04:59;4.00;;;2.63;;
19404;SDS011;9838;49.384;8.292;2022-10-31T16:15:02;4.90;;;2.33;;
19404;SDS011;9838;49.384;8.292;2022-10-31T16:25:15;4.93;;;2.50;;
19404;SDS011;9838;49.384;8.292;2022-10-31T16:35:23;7.37;;;2.57;;
19404;SDS011;9838;49.384;8.292;2022-10-31T16:45:35;5.30;;;2.83;;
19404;SDS011;9838;49.384;8.292;2022-10-31T16:55:57;4.83;;;3.00;;
19404;SDS011;9838;49.384;8.292;2022-10-31T17:06:00;5.10;;;3.23;;
19404;SDS011;9838;49.384;8.292;2022-10-31T17:16:02;7.07;;;2.83;;
19404;SDS011;9838;49.384;8.292;2022-10-31T17:26:04;4.93;;;2.60;;
19404;SDS011;9838;49.384;8.292;2022-10-31T17:36:08;5.23;;;3.10;;
19404;SDS011;9838;49.384;8.292;2022-10-31T17:46:10;7.00;;;3.00;;
19404;SDS011;9838;49.384;8.292;2022-10-31T17:56:13;3.93;;;2.47;;
19404;SDS011;9838;49.384;8.292;2022-10-31T18:06:15;3.60;;;2.67;;
19404;SDS011;9838;49.384;8.292;2022-10-31T18:16:16;5.87;;;2.80;;
19404;SDS011;9838;49.384;8.292;2022-10-31T18:26:24;3.77;;;2.23;;
19404;SDS011;9838;49.384;8.292;2022-10-31T18:36:26;4.63;;;2.57;;
19404;SDS011;9838;49.384;8.292;2022-10-31T18:46:28;5.30;;;2.97;;
19404;SDS011;9838;49.384;8.292;2022-10-31T18:56:30;6.27;;;3.20;;
19404;SDS011;9838;49.384;8.292;2022-10-31T19:06:32;5.43;;;2.53;;
19404;SDS011;9838;49.384;8.292;2022-10-31T19:16:34;5.67;;;2.80;;
19404;SDS011;9838;49.384;8.292;2022-10-31T19:26:36;5.03;;;3.30;;
19404;SDS011;9838;49.384;8.292;2022-10-31T19:36:38;3.93;;;2.80;;
19404;SDS011;9838;49.384;8.292;2022-10-31T19:46:40;7.10;;;2.87;;
19404;SDS011;9838;49.384;8.292;2022-10-31T19:56:44;4.53;;;2.60;;
19404;SDS011;9838;49.384;8.292;2022-10-31T20:06:46;3.63;;;2.53;;
19404;SDS011;9838;49.384;8.292;2022-10-31T20:16:48;6.60;;;3.60;;
19404;SDS011;9838;49.384;8.292;2022-10-31T20:26:50;7.30;;;3.30;;
19404;SDS011;9838;49.384;8.292;2022-10-31T20:36:51;7.40;;;4.10;;
19404;SDS011;9838;49.384;8.292;2022-10-31T20:46:53;7.63;;;4.50;;
19404;SDS011;9838;49.384;8.292;2022-10-31T20:56:55;5.87;;;4.57;;
19404;SDS011;9838;49.384;8.292;2022-10-31T21:06:57;4.77;;;3.33;;
19404;SDS011;9838;49.384;8.292;2022-10-31T21:16:59;4.50;;;2.73;;
19404;SDS011;9838;49.384;8.292;2022-10-31T21:27:00;3.80;;;2.10;;
19404;SDS011;9838;49.384;8.292;2022-10-31T21:37:03;2.80;;;2.13;;
19404;SDS011;9838;49.384;8.292;2022-10-31T21:47:05;6.80;;;4.30;;
19404;SDS011;9838;49.384;8.292;2022-10-31T21:57:07;4.90;;;3.70;;
19404;SDS011;9838;49.384;8.292;2022-10-31T22:07:09;6.40;;;3.37;;
19404;SDS011;9838;49.384;8.292;2022-10-31T22:17:11;6.07;;;3.57;;
19404;SDS011;9838;49.384;8.292;2022-10-31T22:27:13;4.73;;;3.60;;
19404;SDS011;9838;49.384;8.292;2022-10-31T22:37:14;7.03;;;3.73;;
19404;SDS011;9838;49.384;8.292;2022-10-31T22:47:16;6.13;;;2.97;;
19404;SDS011;9838;49.384;8.292;2022-10-31T22:57:18;4.93;;;2.77;;
19404;SDS011;9838;49.384;8.292;2022-10-31T23:07:19;3.67;;;2.70;;
19404;SDS011;9838;49.384;8.292;2022-10-31T23:17:21;3.70;;;2.40;;
19404;SDS011;9838;49.384;8.292;2022-10-31T23:27:24;6.10;;;3.03;;
19404;SDS011;9838;49.384;8.292;2022-10-31T23:37:28;3.97;;;2.30;;
19404;SDS011;9838;49.384;8.292;2022-10-31T23:47:30;4.47;;;2.80;;
19404;SDS011;9838;49.384;8.292;2022-10-31T23:57:32;5.27;;;2.50;;
